Time;durP1;ratioP1;P1;durP2;ratioP2;P2;SDS_P1;SDS_P2;PMS_P1;PMS_P2;Temp;Humidity;BMP_temperature;BMP_pressure;BME280_temperature;BME280_humidity;BME280_pressure;Samples;Min_cycle;Max_cycle;Signal;HPM_P1;HPM_P2
2022/05/05 00:01:35;;;;;;;10.37;7.27;;;;;;;9.41;100.00;96664.09;10411105;28;20244;-60
2022/05/05 00:06:36;;;;;;;8.97;6.80;;;;;;;9.44;100.00;96675.06;10410634;28;20306;-58
2022/05/05 00:17:01;;;;;;;8.33;6.83;;;;;;;9.27;100.00;96674.09;10410785;28;20208;-57
2022/05/05 00:22:03;;;;;;;15.90;8.07;;;;;;;9.18;100.00;96677.59;10410405;28;20191;-58
2022/05/05 00:27:05;;;;;;;8.63;7.47;;;;;;;9.10;100.00;96672.31;10410633;28;20279;-57
2022/05/05 00:32:06;;;;;;;10.63;8.30;;;;;;;9.15;100.00;96677.09;10410394;28;20312;-59
2022/05/05 00:37:06;;;;;;;8.80;7.93;;;;;;;9.22;100.00;96668.50;10410245;28;20600;-56
2022/05/05 00:42:11;;;;;;;10.27;7.70;;;;;;;9.28;100.00;96678.38;10410412;28;20211;-58
2022/05/05 00:47:16;;;;;;;13.37;8.27;;;;;;;9.37;100.00;96673.19;10409949;28;20593;-57
2022/05/05 00:52:16;;;;;;;9.40;7.20;;;;;;;9.36;100.00;96676.81;10410075;28;20235;-58
2022/05/05 00:57:17;;;;;;;10.03;7.33;;;;;;;9.34;100.00;96671.72;10410103;28;20200;-56
2022/05/05 01:02:17;;;;;;;12.73;8.70;;;;;;;9.27;100.00;96675.91;10409122;28;20216;-56
2022/05/05 01:07:18;;;;;;;10.20;8.50;;;;;;;9.31;100.00;96676.41;10409549;28;20200;-58
2022/05/05 01:12:20;;;;;;;12.73;8.47;;;;;;;9.14;100.00;96680.66;10409332;28;20599;-60
2022/05/05 01:17:21;;;;;;;11.80;8.60;;;;;;;9.19;100.00;96673.19;10409556;28;20648;-55
2022/05/05 01:22:25;;;;;;;13.93;8.80;;;;;;;9.22;100.00;96672.91;10409143;28;20695;-55
2022/05/05 01:32:44;;;;;;;11.10;8.63;;;;;;;9.22;100.00;96680.75;10409188;28;20224;-59
2022/05/05 01:37:45;;;;;;;12.40;9.03;;;;;;;9.26;100.00;96677.69;10413102;28;20196;-58
2022/05/05 01:42:46;;;;;;;10.37;8.93;;;;;;;9.31;100.00;96686.88;10416591;28;20239;-58
2022/05/05 01:47:46;;;;;;;11.07;9.60;;;;;;;9.33;100.00;96677.91;10416246;28;20241;-56
2022/05/05 01:52:47;;;;;;;13.13;8.80;;;;;;;9.28;100.00;96686.19;10416061;28;20236;-56
2022/05/05 01:57:47;;;;;;;10.30;9.07;;;;;;;9.29;100.00;96687.00;10415965;28;20201;-56
2022/05/05 02:02:48;;;;;;;11.57;9.30;;;;;;;9.27;100.00;96702.84;10398135;28;20663;-57
2022/05/05 02:07:48;;;;;;;12.23;9.57;;;;;;;9.36;100.00;96709.00;10415262;28;20667;-58
2022/05/05 02:12:51;;;;;;;14.03;9.40;;;;;;;9.31;100.00;96699.94;10415305;28;20312;-56
2022/05/05 02:17:51;;;;;;;9.77;8.77;;;;;;;9.34;100.00;96703.09;10415160;28;20192;-58
2022/05/05 02:22:51;;;;;;;16.53;10.13;;;;;;;9.19;100.00;96705.41;10439440;22;20231;-57
2022/05/05 02:27:53;;;;;;;13.23;9.83;;;;;;;9.36;100.00;96706.38;10455827;28;20203;-60
2022/05/05 02:32:53;;;;;;;10.57;9.47;;;;;;;9.35;100.00;96706.53;10455963;28;20230;-58
2022/05/05 02:43:12;;;;;;;12.00;9.87;;;;;;;9.05;100.00;96698.03;10455808;28;20298;-60
2022/05/05 02:48:13;;;;;;;15.80;10.17;;;;;;;9.07;100.00;96691.72;10455136;28;20212;-59
2022/05/05 02:58:32;;;;;;;13.33;10.87;;;;;;;8.92;100.00;96712.28;10455019;28;20223;-59
2022/05/05 03:03:32;;;;;;;17.60;10.63;;;;;;;8.88;100.00;96710.09;10455255;28;20665;-57
2022/05/05 03:08:33;;;;;;;12.17;10.73;;;;;;;8.82;100.00;96713.28;10454373;28;20580;-58
2022/05/05 03:13:33;;;;;;;14.43;12.53;;;;;;;8.37;100.00;96707.00;10454587;28;20581;-57
2022/05/05 03:18:33;;;;;;;19.50;14.30;;;;;;;8.34;100.00;96720.34;10454253;28;20634;-58
2022/05/05 03:23:34;;;;;;;18.67;12.60;;;;;;;8.46;100.00;96721.03;10453948;28;20258;-57
2022/05/05 03:28:34;;;;;;;16.27;13.10;;;;;;;8.19;100.00;96718.19;10453698;28;20245;-55
2022/05/05 03:33:36;;;;;;;21.30;15.63;;;;;;;8.09;100.00;96717.38;10453839;28;20234;-59
2022/05/05 03:38:37;;;;;;;16.77;13.60;;;;;;;8.11;100.00;96730.28;10453195;28;20231;-58
2022/05/05 03:43:37;;;;;;;14.43;12.03;;;;;;;8.07;100.00;96731.53;10453261;28;20208;-60
2022/05/05 03:48:37;;;;;;;14.07;12.57;;;;;;;8.16;100.00;96728.91;10453037;28;20196;-59
2022/05/05 03:53:38;;;;;;;44.80;24.50;;;;;;;8.31;100.00;96725.84;10452777;28;20729;-60
2022/05/05 03:58:38;;;;;;;36.30;21.63;;;;;;;8.24;100.00;96724.75;10452323;28;20719;-57
2022/05/05 04:03:43;;;;;;;44.67;27.53;;;;;;;8.30;100.00;96726.81;10452390;28;20253;-55
2022/05/05 04:08:43;;;;;;;17.00;14.57;;;;;;;8.42;100.00;96728.28;10452125;28;20184;-57
2022/05/05 04:13:43;;;;;;;16.50;13.83;;;;;;;8.36;100.00;96736.66;10452437;28;20212;-54
2022/05/05 04:18:44;;;;;;;18.83;14.33;;;;;;;8.33;100.00;96737.78;10452111;28;20289;-57
2022/05/05 04:23:45;;;;;;;16.43;14.03;;;;;;;8.39;100.00;96749.44;10452220;28;20629;-59
2022/05/05 04:28:48;;;;;;;17.43;14.40;;;;;;;8.37;100.00;96741.75;10452101;28;20719;-55
2022/05/05 04:33:48;;;;;;;19.97;15.60;;;;;;;8.43;100.00;96742.16;10452223;28;20236;-55
2022/05/05 04:38:49;;;;;;;21.13;16.13;;;;;;;8.58;100.00;96743.38;10434204;28;20572;-56
2022/05/05 04:43:49;;;;;;;18.43;14.47;;;;;;;8.68;100.00;96752.00;10451783;28;20281;-60
2022/05/05 04:48:49;;;;;;;15.53;13.10;;;;;;;8.98;100.00;96754.50;10463936;28;20218;-59
2022/05/05 04:53:50;;;;;;;17.07;13.80;;;;;;;9.25;100.00;96753.66;10456794;28;20686;-58
2022/05/05 04:58:50;;;;;;;19.47;12.80;;;;;;;9.55;100.00;96756.88;10451834;28;20220;-58
2022/05/05 05:03:50;;;;;;;17.13;11.97;;;;;;;9.59;100.00;96761.66;10451449;28;20222;-57
2022/05/05 05:08:51;;;;;;;14.40;12.30;;;;;;;9.68;100.00;96764.34;10451251;28;20279;-57
2022/05/05 05:13:51;;;;;;;20.10;12.27;;;;;;;9.90;100.00;96766.50;10457373;28;20227;-60
2022/05/05 05:18:53;;;;;;;15.67;12.30;;;;;;;9.95;100.00;96761.66;10459495;28;20212;-60
2022/05/05 05:23:54;;;;;;;15.70;12.17;;;;;;;10.20;100.00;96769.69;10459148;28;20699;-59
2022/05/05 05:28:54;;;;;;;16.17;12.67;;;;;;;10.45;100.00;96769.91;10458673;28;20275;-58
2022/05/05 05:33:55;;;;;;;13.57;11.27;;;;;;;10.80;100.00;96770.75;10458726;28;20217;-59
2022/05/05 05:38:55;;;;;;;15.03;11.50;;;;;;;11.37;100.00;96773.56;10458198;28;20294;-60
2022/05/05 05:43:55;;;;;;;13.63;10.90;;;;;;;12.01;100.00;96780.13;10458343;28;20224;-60
2022/05/05 05:48:56;;;;;;;17.60;15.13;;;;;;;12.84;100.00;96797.41;10458183;28;20248;-61
2022/05/05 05:53:57;;;;;;;19.20;16.55;;;;;;;12.65;100.00;96798.63;10457646;28;20698;-59
2022/05/05 05:58:57;;;;;;;19.50;16.05;;;;;;;12.83;100.00;96807.13;10457976;28;20220;-61
2022/05/05 06:03:58;;;;;;;16.33;14.60;;;;;;;13.10;100.00;96802.41;10455719;28;20230;-58
2022/05/05 06:08:58;;;;;;;19.88;14.88;;;;;;;12.75;100.00;96815.00;10456983;28;20245;-59
2022/05/05 06:13:59;;;;;;;27.10;22.30;;;;;;;11.75;100.00;96821.22;10457218;28;20204;-60
2022/05/05 06:18:59;;;;;;;24.30;21.60;;;;;;;12.20;100.00;96827.03;10456731;28;20254;-60
2022/05/05 06:23:59;;;;;;;29.77;23.52;;;;;;;11.91;100.00;96833.56;10456139;28;20603;-59
2022/05/05 06:29:00;;;;;;;33.28;25.25;;;;;;;12.12;100.00;96835.72;10456208;28;20191;-59
2022/05/05 06:34:00;;;;;;;36.25;25.77;;;;;;;12.26;100.00;96843.97;10452703;28;20936;-58
2022/05/05 06:39:07;;;;;;;37.03;27.25;;;;;;;12.67;100.00;96846.56;10454065;28;20350;-60
2022/05/05 06:44:07;;;;;;;41.85;28.67;;;;;;;12.95;100.00;96854.06;10450808;28;20207;-59
2022/05/05 06:49:08;;;;;;;40.65;31.52;;;;;;;11.93;100.00;96870.19;10451685;28;20200;-60
2022/05/05 06:54:08;;;;;;;50.60;34.58;;;;;;;12.60;100.00;96864.81;10450467;28;20307;-60
2022/05/05 06:59:08;;;;;;;46.58;33.95;;;;;;;12.62;100.00;96868.09;10451709;28;20232;-60
2022/05/05 07:14:47;;;;;;;48.55;36.85;;;;;;;11.42;100.00;96891.97;10452799;28;20587;-59
2022/05/05 07:19:47;;;;;;;54.70;38.27;;;;;;;11.30;100.00;96887.97;10452471;28;20211;-54
2022/05/05 07:24:48;;;;;;;50.80;34.87;;;;;;;11.83;100.00;96885.22;10449276;28;20231;-60
2022/05/05 07:29:48;;;;;;;49.55;36.78;;;;;;;11.77;100.00;96890.09;10451446;28;20200;-62
2022/05/05 07:34:48;;;;;;;48.47;36.45;;;;;;;11.84;100.00;96889.47;10449761;28;20274;-59
2022/05/05 07:39:49;;;;;;;53.55;37.33;;;;;;;11.51;100.00;96886.75;10451712;28;20215;-59
2022/05/05 07:44:49;;;;;;;71.70;43.23;;;;;;;11.73;100.00;96894.06;10451711;28;20216;-59
2022/05/05 07:49:49;;;;;;;46.33;33.58;;;;;;;12.45;100.00;96888.31;10452037;28;20195;-60
2022/05/05 07:54:50;;;;;;;47.60;33.38;;;;;;;12.28;100.00;96887.47;10447439;28;20273;-60
2022/05/05 07:59:50;;;;;;;52.63;34.17;;;;;;;12.38;100.00;96889.13;10450284;28;20677;-60
2022/05/05 08:04:53;;;;;;;37.38;28.55;;;;;;;12.97;100.00;96891.53;10450588;28;20572;-60
2022/05/05 08:09:53;;;;;;;41.33;29.35;;;;;;;12.85;100.00;96896.34;10441792;28;20638;-60
2022/05/05 08:14:53;;;;;;;33.75;25.33;;;;;;;13.29;100.00;96890.66;10417306;28;20217;-60
2022/05/05 08:19:54;;;;;;;29.85;23.40;;;;;;;14.65;100.00;96870.16;10442614;28;20219;-58
2022/05/05 08:30:13;;;;;;;27.80;23.98;;;;;;;14.92;95.65;96889.06;10446063;28;20226;-60
2022/05/05 08:35:13;;;;;;;32.10;22.65;;;;;;;15.77;90.81;96869.28;10453573;22;20331;-59
2022/05/05 08:40:14;;;;;;;29.30;21.23;;;;;;;16.01;86.91;96875.28;10408254;28;20855;-58
2022/05/05 08:45:14;;;;;;;27.30;20.85;;;;;;;17.05;79.74;96818.38;10411420;28;20683;-55
2022/05/05 08:50:15;;;;;;;20.60;16.58;;;;;;;17.91;76.04;96811.84;10413134;28;20210;-56
2022/05/05 08:55:17;;;;;;;24.63;19.38;;;;;;;17.55;76.39;96826.16;10412487;28;20212;-57
2022/05/05 09:00:17;;;;;;;25.70;19.42;;;;;;;18.72;70.18;96765.75;10413393;28;20251;-58
2022/05/05 09:05:44;;;;;;;18.05;13.85;;;;;;;17.06;69.19;96759.97;10413288;28;20307;-60
2022/05/05 09:10:45;;;;;;;27.83;16.80;;;;;;;19.68;63.34;96711.06;10414067;28;20231;-59
2022/05/05 09:15:46;;;;;;;19.35;13.30;;;;;;;18.75;66.75;96780.44;10413248;28;20262;-61
2022/05/05 09:20:47;;;;;;;14.60;11.13;;;;;;;19.14;64.45;96737.09;10413495;28;20220;-60
2022/05/05 09:25:48;;;;;;;17.88;13.48;;;;;;;20.58;61.48;96706.44;10412356;28;20204;-62
2022/05/05 09:30:50;;;;;;;12.70;10.52;;;;;;;20.96;59.93;96697.47;10411739;28;20192;-62
2022/05/05 09:35:56;;;;;;;13.30;9.75;;;;;;;20.72;60.74;96717.81;10410437;28;20246;-61
2022/05/05 09:41:03;;;;;;;15.00;10.55;;;;;;;22.11;57.88;96700.22;10411109;28;20270;-59
2022/05/05 09:46:22;;;;;;;13.57;8.88;;;;;;;22.80;52.83;96602.47;10411632;28;20299;-61
2022/05/05 09:51:22;;;;;;;13.18;9.32;;;;;;;22.97;54.11;96665.81;10410096;28;20192;-62
2022/05/05 10:01:45;;;;;;;21.27;14.38;;;;;;;21.84;54.09;96645.44;10407234;28;21008;-58
2022/05/05 10:06:46;;;;;;;16.70;9.45;;;;;;;21.58;54.97;96673.34;10367914;28;20225;-59
2022/05/05 10:11:47;;;;;;;7.18;6.47;;;;;;;20.02;59.12;96742.75;10370130;28;20193;-60
2022/05/05 10:16:48;;;;;;;7.50;5.45;;;;;;;19.66;61.20;96776.88;10370178;28;20244;-62
2022/05/05 10:22:07;;;;;;;8.70;5.75;;;;;;;19.34;61.61;96768.03;10404505;28;20216;-62
2022/05/05 10:27:09;;;;;;;7.38;4.97;;;;;;;20.39;58.35;96716.28;10404064;28;20212;-59
2022/05/05 10:32:12;;;;;;;6.13;4.18;;;;;;;21.31;56.53;96700.31;10407569;28;20224;-63
2022/05/05 10:37:18;;;;;;;6.32;4.13;;;;;;;20.42;56.37;96683.91;10406322;28;20259;-62
2022/05/05 10:42:18;;;;;;;6.22;4.00;;;;;;;21.24;57.25;96726.25;10405894;28;20212;-61
2022/05/05 10:47:19;;;;;;;9.02;5.68;;;;;;;21.17;55.43;96686.34;10403361;28;20251;-60
2022/05/05 10:52:22;;;;;;;6.55;5.07;;;;;;;20.55;57.25;96725.53;10387525;28;20224;-61
2022/05/05 10:57:25;;;;;;;7.85;5.25;;;;;;;21.00;58.03;96746.59;10405444;28;20251;-62
2022/05/05 11:02:31;;;;;;;9.77;5.75;;;;;;;22.05;53.77;96667.25;10405524;28;20224;-63
2022/05/05 11:07:31;;;;;;;8.77;5.78;;;;;;;22.57;52.42;96654.06;10405023;28;20662;-62
2022/05/05 11:12:34;;;;;;;6.65;5.25;;;;;;;22.86;49.91;96619.38;10396763;28;20893;-65
2022/05/05 11:23:13;;;;;;;7.43;4.50;;;;;;;21.63;53.61;96677.97;10403145;28;20196;-59
2022/05/05 11:28:14;;;;;;;5.78;4.88;;;;;;;21.90;52.35;96657.06;10385219;28;20225;-63
2022/05/05 11:33:17;;;;;;;5.93;4.50;;;;;;;23.48;49.21;96618.69;10408042;28;20200;-61
2022/05/05 11:38:17;;;;;;;11.43;4.47;;;;;;;23.65;49.16;96617.88;10407663;28;20279;-63
2022/05/05 11:48:38;;;;;;;5.05;4.45;;;;;;;21.89;52.23;96658.91;10408068;28;20188;-61
2022/05/05 11:53:39;;;;;;;5.30;4.80;;;;;;;24.18;49.36;96648.72;10407500;28;20221;-63
2022/05/05 12:04:00;;;;;;;5.80;4.60;;;;;;;22.36;50.31;96642.13;10406927;28;20291;-60
2022/05/05 12:09:00;;;;;;;5.03;3.72;;;;;;;21.35;53.39;96688.16;10407307;28;20195;-59
2022/05/05 12:14:05;;;;;;;7.43;4.85;;;;;;;21.53;53.63;96690.00;10393229;28;20220;-60
2022/05/05 12:19:17;;;;;;;8.82;4.38;;;;;;;22.43;51.41;96640.16;10366295;28;20303;-61
2022/05/05 12:24:20;;;;;;;6.75;4.25;;;;;;;23.80;48.51;96599.41;10365935;28;20764;-60
2022/05/05 12:29:20;;;;;;;4.88;3.72;;;;;;;22.94;48.37;96583.47;10365362;28;20197;-58
2022/05/05 12:34:25;;;;;;;6.07;3.97;;;;;;;21.75;49.86;96596.16;10365185;28;20253;-60
2022/05/05 12:39:25;;;;;;;7.28;3.45;;;;;;;21.30;53.34;96674.72;10365629;28;20225;-62
2022/05/05 12:44:33;;;;;;;7.30;3.63;;;;;;;23.60;46.17;96550.94;10368176;28;20212;-62
2022/05/05 12:49:44;;;;;;;7.13;4.53;;;;;;;22.94;47.36;96570.09;10403550;28;20648;-64
2022/05/05 13:00:04;;;;;;;7.10;4.38;;;;;;;23.20;46.50;96550.03;10395622;28;20588;-63
2022/05/05 13:05:05;;;;;;;8.52;5.03;;;;;;;22.11;47.66;96546.28;10405200;28;20869;-62
2022/05/05 13:10:06;;;;;;;6.90;5.22;;;;;;;21.94;48.82;96583.53;10402945;28;20182;-62
2022/05/05 13:15:07;;;;;;;7.05;4.68;;;;;;;21.57;50.02;96615.72;10402053;28;20216;-63
2022/05/05 13:20:09;;;;;;;7.45;4.80;;;;;;;21.63;50.90;96648.66;10398015;28;20224;-61
2022/05/05 13:25:09;;;;;;;11.48;5.97;;;;;;;22.76;49.26;96620.00;10403788;28;20595;-63
2022/05/05 13:30:10;;;;;;;9.18;4.93;;;;;;;24.46;45.94;96569.31;10403049;28;20203;-60
2022/05/05 13:35:10;;;;;;;11.70;5.15;;;;;;;24.50;45.48;96549.00;10408379;28;20240;-60
2022/05/05 13:40:11;;;;;;;9.02;5.25;;;;;;;24.38;45.55;96559.03;10412408;28;20985;-60
2022/05/05 13:45:11;;;;;;;6.30;5.20;;;;;;;23.99;44.61;96517.03;10412504;28;20208;-62
2022/05/05 13:50:12;;;;;;;7.40;4.72;;;;;;;24.14;45.70;96561.94;10411529;28;20189;-60
2022/05/05 13:55:13;;;;;;;7.30;4.80;;;;;;;24.00;45.88;96579.41;10411873;28;20270;-62
2022/05/05 14:00:14;;;;;;;9.00;5.25;;;;;;;23.62;46.59;96581.75;10412484;28;20220;-63
2022/05/05 14:05:14;;;;;;;9.68;5.55;;;;;;;21.72;49.27;96596.63;10411412;28;20208;-59
2022/05/05 14:15:34;;;;;;;8.95;5.65;;;;;;;22.04;49.46;96630.97;10411052;28;20585;-62
2022/05/05 14:20:34;;;;;;;9.98;6.60;;;;;;;22.22;48.61;96620.19;10410173;28;20228;-63
2022/05/05 14:25:34;;;;;;;8.30;6.05;;;;;;;22.84;48.29;96623.34;10410986;28;20205;-62
2022/05/05 14:30:35;;;;;;;7.03;4.82;;;;;;;22.08;50.06;96648.94;10410481;28;20308;-61
2022/05/05 14:35:35;;;;;;;9.68;6.20;;;;;;;22.55;48.35;96620.63;10430630;22;20248;-61
2022/05/05 14:40:36;;;;;;;8.63;6.70;;;;;;;21.27;50.88;96655.69;10410233;28;20216;-62
2022/05/05 14:45:37;;;;;;;13.98;7.00;;;;;;;19.58;56.64;96748.72;10413054;28;20307;-61
2022/05/05 14:50:37;;;;;;;11.40;7.85;;;;;;;19.52;57.45;96776.13;10412256;28;20721;-62
2022/05/05 14:55:38;;;;;;;11.15;6.70;;;;;;;19.47;57.54;96783.94;10411595;28;20276;-62
2022/05/05 15:00:39;;;;;;;13.50;7.47;;;;;;;19.07;59.09;96806.13;10411380;28;20213;-60
2022/05/05 15:05:39;;;;;;;11.65;7.38;;;;;;;20.17;56.69;96772.53;10409163;28;20223;-62
2022/05/05 15:10:40;;;;;;;12.48;8.20;;;;;;;21.93;52.38;96709.94;10408335;28;20181;-62
2022/05/05 15:15:40;;;;;;;13.25;8.88;;;;;;;21.15;51.95;96675.13;10410441;28;20216;-63
2022/05/05 15:20:41;;;;;;;10.95;7.22;;;;;;;22.60;49.33;96655.44;10412091;28;20231;-63
2022/05/05 15:25:41;;;;;;;11.95;9.13;;;;;;;21.02;52.09;96678.75;10410445;28;20220;-62
2022/05/05 15:30:41;;;;;;;15.40;10.00;;;;;;;20.55;54.33;96715.72;10411480;28;20624;-63
2022/05/05 15:35:42;;;;;;;12.30;7.93;;;;;;;20.49;53.43;96703.28;10407911;28;20606;-63
2022/05/05 15:40:42;;;;;;;12.68;8.60;;;;;;;21.45;52.98;96726.78;10408560;28;20598;-63
2022/05/05 15:45:44;;;;;;;11.00;7.55;;;;;;;20.33;52.97;96687.88;10378137;28;20264;-62
2022/05/05 15:50:45;;;;;;;12.77;8.18;;;;;;;19.13;57.14;96777.13;10370065;28;20758;-59
2022/05/05 15:55:45;;;;;;;12.45;9.00;;;;;;;19.09;57.91;96797.97;10378613;28;20282;-59
2022/05/05 16:00:47;;;;;;;15.80;9.32;;;;;;;18.52;58.35;96787.81;10407434;28;20228;-61
2022/05/05 16:05:48;;;;;;;12.32;7.38;;;;;;;18.04;59.93;96816.34;10410868;28;20296;-59
2022/05/05 16:10:48;;;;;;;14.00;7.93;;;;;;;17.76;59.64;96809.31;10411518;28;20283;-60
2022/05/05 16:15:49;;;;;;;9.57;7.35;;;;;;;17.79;59.86;96816.84;10411436;28;20211;-61
2022/05/05 16:20:49;;;;;;;15.77;8.38;;;;;;;17.63;60.74;96833.94;10393611;28;20231;-61
2022/05/05 16:31:09;;;;;;;8.88;7.05;;;;;;;17.99;59.49;96819.59;10411100;28;20188;-59
2022/05/05 16:36:10;;;;;;;16.35;7.80;;;;;;;18.10;58.97;96826.13;10410680;28;20240;-62
2022/05/05 16:41:10;;;;;;;14.60;7.45;;;;;;;18.33;58.80;96820.44;10410538;28;20215;-62
2022/05/05 16:46:10;;;;;;;13.95;7.72;;;;;;;18.07;59.29;96819.41;10391012;28;20828;-62
2022/05/05 16:51:12;;;;;;;17.75;8.77;;;;;;;17.20;62.01;96864.09;10410547;28;20737;-61
2022/05/05 16:56:13;;;;;;;12.98;8.95;;;;;;;17.06;62.19;96865.84;10410539;28;20274;-61
2022/05/05 17:01:14;;;;;;;11.40;7.65;;;;;;;17.26;61.21;96857.19;10410397;28;20312;-61
2022/05/05 17:06:14;;;;;;;14.27;8.77;;;;;;;17.23;61.73;96870.84;10411557;28;20220;-61
2022/05/05 17:11:14;;;;;;;14.43;9.60;;;;;;;16.89;62.53;96877.72;10418602;28;20202;-61
2022/05/05 17:16:15;;;;;;;9.85;7.20;;;;;;;17.32;60.88;96869.66;10417830;28;20244;-61
2022/05/05 17:21:15;;;;;;;10.02;8.13;;;;;;;17.41;61.19;96875.59;10417747;28;20235;-61
2022/05/05 17:26:15;;;;;;;12.68;10.20;;;;;;;17.01;62.62;96907.13;10417684;28;20220;-61
2022/05/05 17:31:16;;;;;;;13.45;8.35;;;;;;;16.71;62.22;96891.41;10417068;28;20208;-59
2022/05/05 17:36:16;;;;;;;11.93;7.88;;;;;;;16.22;64.07;96936.09;10416871;28;20236;-61
2022/05/05 17:41:16;;;;;;;13.15;7.13;;;;;;;15.99;65.64;96964.50;10414123;28;20315;-61
2022/05/05 17:51:36;;;;;;;12.75;8.43;;;;;;;15.42;68.32;96998.44;10413746;28;20192;-61
2022/05/05 17:56:37;;;;;;;14.90;10.38;;;;;;;15.18;69.13;97015.31;10412818;28;20209;-61
2022/05/05 18:01:38;;;;;;;12.32;8.27;;;;;;;14.98;69.49;97018.41;10411651;28;20332;-61
2022/05/05 18:06:38;;;;;;;9.40;7.63;;;;;;;15.02;69.55;97023.34;10409535;28;20319;-56
2022/05/05 18:11:40;;;;;;;16.77;8.15;;;;;;;14.75;71.38;97050.06;10410497;28;20319;-60
2022/05/05 18:16:40;;;;;;;12.82;7.93;;;;;;;14.39;72.59;97061.09;10409670;28;20625;-58
2022/05/05 18:21:41;;;;;;;12.10;7.68;;;;;;;14.02;73.95;97075.72;10409940;28;20220;-59
2022/05/05 18:26:41;;;;;;;8.65;6.97;;;;;;;13.50;74.92;97069.09;10412627;28;20205;-58
2022/05/05 18:31:41;;;;;;;11.73;8.65;;;;;;;12.81;76.87;97076.44;10412159;28;20554;-59
2022/05/05 18:36:44;;;;;;;14.57;9.27;;;;;;;12.43;78.08;97078.63;10412026;28;20348;-58
2022/05/05 18:41:44;;;;;;;12.68;8.65;;;;;;;12.27;80.40;97074.94;10411181;28;20322;-61
2022/05/05 18:46:47;;;;;;;14.82;8.13;;;;;;;11.97;80.44;97067.59;10409369;28;20734;-60
2022/05/05 18:51:48;;;;;;;12.30;7.65;;;;;;;11.03;84.67;97081.16;10409271;28;20189;-60
2022/05/05 18:56:49;;;;;;;8.48;5.90;;;;;;;11.04;85.92;97084.59;10407960;28;20208;-60
2022/05/05 19:01:49;;;;;;;10.97;7.20;;;;;;;11.03;86.82;97085.59;10410549;28;20657;-60
2022/05/05 19:06:50;;;;;;;13.37;7.13;;;;;;;10.24;94.97;97094.88;10410301;28;20212;-58
2022/05/05 19:11:50;;;;;;;9.53;6.57;;;;;;;10.13;97.08;97094.06;10410634;28;20561;-58
2022/05/05 19:16:50;;;;;;;10.10;5.97;;;;;;;10.02;98.81;97096.88;10392507;28;20563;-59
2022/05/05 19:21:51;;;;;;;16.20;6.83;;;;;;;10.07;100.00;97106.94;10409385;28;20341;-59
2022/05/05 19:26:51;;;;;;;13.33;6.90;;;;;;;9.90;100.00;97117.16;10409728;28;20297;-55
2022/05/05 19:31:51;;;;;;;10.23;5.93;;;;;;;9.68;100.00;97114.88;10408422;28;20185;-58
2022/05/05 19:36:52;;;;;;;6.73;5.17;;;;;;;9.43;100.00;97127.56;10410109;28;20664;-55
2022/05/05 19:41:52;;;;;;;7.30;5.60;;;;;;;9.23;100.00;97137.22;10411321;28;20226;-57
2022/05/05 19:46:53;;;;;;;11.17;6.80;;;;;;;9.05;100.00;97134.44;10409463;28;20204;-58
2022/05/05 19:51:53;;;;;;;15.27;9.60;;;;;;;8.98;100.00;97143.81;10409695;28;20296;-57
2022/05/05 20:02:13;;;;;;;10.83;7.13;;;;;;;8.74;100.00;97160.66;10408103;28;20235;-55
2022/05/05 20:07:25;;;;;;;12.10;7.43;;;;;;;8.80;100.00;97162.75;10408063;28;20590;-54
2022/05/05 20:12:26;;;;;;;11.80;6.80;;;;;;;8.84;100.00;97165.94;10408127;28;20188;-55
2022/05/05 20:17:27;;;;;;;12.20;6.83;;;;;;;8.79;100.00;97173.31;10407712;28;20211;-52
2022/05/05 20:22:27;;;;;;;11.77;7.27;;;;;;;8.72;100.00;97178.28;10407776;28;20258;-56
2022/05/05 20:27:28;;;;;;;14.13;7.23;;;;;;;8.60;100.00;97176.72;10407398;28;20288;-52
2022/05/05 20:32:28;;;;;;;11.17;7.17;;;;;;;8.53;100.00;97181.63;10407582;28;20193;-55
2022/05/05 20:37:28;;;;;;;9.23;6.17;;;;;;;8.49;100.00;97181.06;10407047;28;20247;-55
2022/05/05 20:42:30;;;;;;;11.60;5.90;;;;;;;8.30;100.00;97183.56;10406930;28;20212;-57
2022/05/05 20:47:30;;;;;;;6.87;4.97;;;;;;;8.12;100.00;97183.38;10404569;28;20200;-53
2022/05/05 20:52:30;;;;;;;12.07;5.30;;;;;;;7.84;100.00;97183.88;10404296;28;20185;-56
2022/05/05 20:57:31;;;;;;;8.13;5.00;;;;;;;7.85;100.00;97182.91;10403801;28;20205;-57
2022/05/05 21:02:35;;;;;;;10.90;5.43;;;;;;;7.81;100.00;97185.91;10405488;28;20232;-60
2022/05/05 21:12:39;;;;;;;9.20;5.83;;;;;;;7.64;100.00;97198.59;10286160;28;20214;-55
2022/05/05 21:17:40;;;;;;;5.27;4.77;;;;;;;7.56;100.00;97192.34;10288172;28;20206;-56
2022/05/05 21:28:02;;;;;;;9.57;5.27;;;;;;;7.43;100.00;97193.34;10288397;28;20218;-54
2022/05/05 21:33:02;;;;;;;8.53;4.97;;;;;;;7.28;100.00;97199.78;10287251;28;20191;-55
2022/05/05 21:38:03;;;;;;;9.17;4.93;;;;;;;7.25;100.00;97200.03;10288164;28;20206;-56
2022/05/05 21:43:03;;;;;;;9.20;5.30;;;;;;;7.06;100.00;97201.53;10288354;28;20232;-54
2022/05/05 21:48:04;;;;;;;8.07;4.83;;;;;;;7.06;100.00;97196.31;10287628;28;20210;-54
2022/05/05 21:53:06;;;;;;;8.63;5.77;;;;;;;6.90;100.00;97201.06;10289288;28;20195;-55
2022/05/05 21:58:07;;;;;;;6.93;5.17;;;;;;;6.87;100.00;97209.94;10294611;28;20222;-54
2022/05/05 22:03:08;;;;;;;6.17;4.63;;;;;;;6.82;100.00;97213.88;10294416;28;20222;-55
2022/05/05 22:08:11;;;;;;;11.70;5.50;;;;;;;6.73;100.00;97208.44;10294104;28;20682;-55
2022/05/05 22:13:13;;;;;;;6.63;4.90;;;;;;;6.75;100.00;97203.09;10294019;28;20195;-54
2022/05/05 22:18:13;;;;;;;5.77;4.20;;;;;;;6.65;100.00;97212.59;10293867;28;20210;-54
2022/05/05 22:23:14;;;;;;;8.77;4.10;;;;;;;6.59;100.00;97211.28;10293235;28;20222;-54
2022/05/05 22:28:14;;;;;;;10.43;5.00;;;;;;;6.50;100.00;97217.22;10293402;28;20214;-55
2022/05/05 22:33:16;;;;;;;8.13;4.63;;;;;;;6.48;100.00;97216.47;10293078;28;20222;-55
2022/05/05 22:38:17;;;;;;;6.23;3.97;;;;;;;6.45;100.00;97206.31;10292846;28;20218;-55
2022/05/05 22:43:17;;;;;;;7.17;3.97;;;;;;;6.36;100.00;97213.88;10293109;28;20624;-54
2022/05/05 22:53:37;;;;;;;8.87;4.93;;;;;;;6.17;100.00;97209.28;10292734;28;20190;-55
2022/05/05 22:58:37;;;;;;;7.70;4.03;;;;;;;6.07;100.00;97216.94;10292301;28;20210;-53
2022/05/05 23:03:37;;;;;;;12.23;4.43;;;;;;;6.10;100.00;97220.25;10291369;28;20229;-55
2022/05/05 23:08:38;;;;;;;7.53;4.70;;;;;;;6.04;100.00;97221.53;10291499;28;20779;-56
2022/05/05 23:13:38;;;;;;;7.50;5.03;;;;;;;5.90;100.00;97218.16;10291772;28;20654;-54
2022/05/05 23:18:38;;;;;;;7.00;4.43;;;;;;;5.87;100.00;97231.41;10291409;28;20554;-55
2022/05/05 23:23:39;;;;;;;4.87;4.23;;;;;;;5.78;100.00;97232.06;10291295;28;20625;-56
2022/05/05 23:28:40;;;;;;;8.63;4.20;;;;;;;5.89;100.00;97229.50;10291088;28;20701;-55
2022/05/05 23:33:40;;;;;;;5.43;4.20;;;;;;;5.75;100.00;97228.88;10290925;28;20568;-54
2022/05/05 23:38:41;;;;;;;8.80;4.40;;;;;;;5.65;100.00;97233.91;10290583;28;20225;-57
2022/05/05 23:43:42;;;;;;;6.17;4.07;;;;;;;5.70;100.00;97229.22;10290613;28;20285;-55
2022/05/05 23:48:42;;;;;;;10.03;4.77;;;;;;;5.66;100.00;97233.81;10290086;28;20223;-55
2022/05/05 23:53:43;;;;;;;5.70;4.10;;;;;;;5.54;100.00;97237.31;10290133;28;20548;-55
2022/05/05 23:58:43;;;;;;;11.20;4.40;;;;;;;5.54;100.00;97222.56;10290000;28;20629;-54
